createdAt,value
2022-09-09T00:00:27.185Z,1010.171204
2022-09-09T00:01:28.901Z,1010.194275
2022-09-09T00:02:25.059Z,1010.151489
2022-09-09T00:03:29.784Z,1010.15918
2022-09-09T00:05:18.899Z,1010.083252
2022-09-09T00:05:58.519Z,1010.132263
2022-09-09T00:06:58.664Z,1010.140747
2022-09-09T00:08:00.086Z,1010.167786
2022-09-09T00:08:56.440Z,1010.094604
2022-09-09T00:09:58.993Z,1010.094604
2022-09-09T00:10:55.287Z,1010.064148
2022-09-09T00:11:57.715Z,1010.040588
2022-09-09T00:13:00.031Z,1010.078857
2022-09-09T00:14:01.249Z,1010.016785
2022-09-09T00:15:00.005Z,1010.031555
2022-09-09T00:15:57.433Z,1010.042725
2022-09-09T00:17:03.405Z,1010.038269
2022-09-09T00:18:01.445Z,1010.091614
2022-09-09T00:20:01.250Z,1010.053467
2022-09-09T00:21:02.481Z,1010.096802
2022-09-09T00:22:03.364Z,1010.0979
2022-09-09T00:23:04.375Z,1010.070862
2022-09-09T00:24:02.358Z,1010.001526
2022-09-09T00:25:02.856Z,1010.0271
2022-09-09T00:26:03.072Z,1010.022522
2022-09-09T00:27:03.495Z,1010.053467
2022-09-09T00:28:05.507Z,1010.090027
2022-09-09T00:30:09.809Z,1010.070374
2022-09-09T00:31:06.229Z,1010.089417
2022-09-09T00:32:02.670Z,1010.135803
2022-09-09T00:33:13.914Z,1010.158264
2022-09-09T00:35:06.149Z,1010.143433
2022-09-09T00:36:08.785Z,1010.165894
2022-09-09T00:37:10.751Z,1010.153625
2022-09-09T00:38:12.550Z,1010.141174
2022-09-09T00:40:11.656Z,1010.098267
2022-09-09T00:41:14.045Z,1010.055542
2022-09-09T00:42:10.137Z,1009.974426
2022-09-09T00:43:18.217Z,1009.971069
2022-09-09T00:44:22.087Z,1010.006042
2022-09-09T00:45:20.775Z,1010.025208
2022-09-09T00:46:23.010Z,1009.974426
2022-09-09T00:47:26.543Z,1010.028564
2022-09-09T00:48:21.482Z,1009.939636
2022-09-09T00:50:57.828Z,1009.954834
2022-09-09T00:51:59.755Z,1010.006653
2022-09-09T00:53:04.099Z,1010.018005
2022-09-09T00:54:52.193Z,1010.045105
2022-09-09T00:55:40.908Z,1010.041504
2022-09-09T00:56:42.455Z,1010.006653
2022-09-09T00:57:40.912Z,1010.067566
2022-09-09T00:59:41.657Z,1010.008362
2022-09-09T01:00:42.040Z,1010.015137
2022-09-09T01:01:46.720Z,1010.110291
2022-09-09T01:02:41.110Z,1010.110291
2022-09-09T01:03:41.734Z,1010.107422
2022-09-09T01:04:47.672Z,1010.046692
2022-09-09T01:05:43.148Z,1010.135193
2022-09-09T01:06:43.580Z,1010.07373
2022-09-09T01:07:43.562Z,1010.111938
2022-09-09T01:08:45.175Z,1010.092407
2022-09-09T01:09:43.111Z,1010.087769
2022-09-09T01:10:47.697Z,1010.053467
2022-09-09T01:11:46.183Z,1010.107422
2022-09-09T01:12:51.252Z,1010.072205
2022-09-09T01:14:46.410Z,1010.011292
2022-09-09T01:15:49.759Z,1009.992615
2022-09-09T01:16:45.222Z,1010.011292
2022-09-09T01:17:49.807Z,1010.008362
2022-09-09T01:18:44.213Z,1009.923462
2022-09-09T01:19:45.688Z,1009.98584
2022-09-09T01:20:42.225Z,1009.977417
2022-09-09T01:21:49.381Z,1009.969971
2022-09-09T01:22:43.821Z,1010.0271
2022-09-09T01:24:41.453Z,1009.900146
2022-09-09T01:25:42.227Z,1009.930237
2022-09-09T01:26:42.221Z,1009.949707
2022-09-09T01:27:49.106Z,1009.914307
2022-09-09T01:28:48.552Z,1009.906982
2022-09-09T01:29:47.756Z,1009.922546
2022-09-09T01:30:46.528Z,1009.968384
2022-09-09T01:32:30.421Z,1009.90863
2022-09-09T01:33:11.729Z,1009.918823
2022-09-09T01:34:09.771Z,1009.927734
2022-09-09T01:35:08.928Z,1009.88147
2022-09-09T01:36:04.426Z,1009.985107
2022-09-09T01:37:04.697Z,1009.961609
2022-09-09T01:38:06.706Z,1009.991943
2022-09-09T01:39:08.722Z,1009.957214
2022-09-09T01:40:09.221Z,1009.925598
2022-09-09T01:41:05.583Z,1009.971619
2022-09-09T01:42:04.780Z,1009.874817
2022-09-09T01:43:07.399Z,1009.894043
2022-09-09T01:44:56.978Z,1009.949097
2022-09-09T01:45:56.327Z,1009.914246
2022-09-09T01:46:51.697Z,1009.863464
2022-09-09T01:47:50.882Z,1009.801697
2022-09-09T01:48:46.059Z,1009.887207
2022-09-09T01:49:50.490Z,1009.89502
2022-09-09T01:50:43.855Z,1009.867981
2022-09-09T01:51:40.820Z,1009.876038
2022-09-09T01:52:44.406Z,1009.891785
2022-09-09T01:53:47.269Z,1009.877014
2022-09-09T01:54:42.451Z,1009.84314
2022-09-09T01:55:42.123Z,1009.81958
2022-09-09T01:56:37.356Z,1009.765442
2022-09-09T01:57:36.914Z,1009.865662
2022-09-09T01:58:31.799Z,1009.830933
2022-09-09T01:59:31.875Z,1009.830933
2022-09-09T02:00:27.331Z,1009.815247
2022-09-09T02:01:29.483Z,1009.826355
2022-09-09T02:02:22.259Z,1009.864685
2022-09-09T02:04:35.362Z,1009.842224
2022-09-09T02:05:21.160Z,1009.865662
2022-09-09T02:08:03.455Z,1009.839355
2022-09-09T02:08:23.788Z,1009.848267
2022-09-09T02:09:25.873Z,1009.797546
2022-09-09T02:10:25.504Z,1009.864258
2022-09-09T02:11:26.975Z,1009.898193
2022-09-09T02:12:22.266Z,1009.8703
2022-09-09T02:13:20.023Z,1009.857727
2022-09-09T02:14:22.834Z,1009.89978
2022-09-09T02:15:20.967Z,1009.855103
2022-09-09T02:16:16.265Z,1009.854431
2022-09-09T02:17:19.736Z,1009.815247
2022-09-09T02:18:18.932Z,1009.794922
2022-09-09T02:20:17.700Z,1009.887207
2022-09-09T02:21:13.309Z,1009.863464
2022-09-09T02:22:14.667Z,1009.882813
2022-09-09T02:23:10.906Z,1009.924377
2022-09-09T02:24:11.084Z,1009.840027
2022-09-09T02:25:05.774Z,1009.824219
2022-09-09T02:26:09.418Z,1009.900818
2022-09-09T02:27:07.526Z,1009.912109
2022-09-09T02:28:02.742Z,1009.858032
2022-09-09T02:29:10.919Z,1009.854492
2022-09-09T02:30:13.598Z,1009.826477
2022-09-09T02:31:09.423Z,1009.907593
2022-09-09T02:32:12.385Z,1009.830383
2022-09-09T02:33:04.634Z,1009.864807
2022-09-09T02:34:07.209Z,1009.812256
2022-09-09T02:35:03.028Z,1009.830994
2022-09-09T02:36:00.736Z,1009.850586
2022-09-09T02:37:02.576Z,1009.869324
2022-09-09T02:38:28.004Z,1009.841492
2022-09-09T02:40:09.374Z,1009.921143
2022-09-09T02:41:12.443Z,1009.874817
2022-09-09T02:42:08.624Z,1009.867004
2022-09-09T02:43:10.794Z,1009.889587
2022-09-09T02:45:13.702Z,1009.943726
2022-09-09T02:46:13.545Z,1009.939148
2022-09-09T02:47:09.941Z,1009.942993
2022-09-09T02:48:11.061Z,1009.977417
2022-09-09T02:50:09.091Z,1009.900818
2022-09-09T02:51:08.285Z,1009.912109
2022-09-09T02:52:11.082Z,1009.915833
2022-09-09T02:53:10.442Z,1009.90863
2022-09-09T02:54:05.572Z,1009.867004
2022-09-09T02:55:04.922Z,1009.828674
2022-09-09T02:56:06.190Z,1009.793701
2022-09-09T02:57:04.337Z,1009.82074
2022-09-09T02:58:05.990Z,1009.75885
2022-09-09T02:59:02.759Z,1009.83313
2022-09-09T03:00:04.029Z,1009.887207
2022-09-09T03:01:03.175Z,1009.817505
2022-09-09T03:02:04.242Z,1009.793701
2022-09-09T03:03:00.528Z,1009.812866
2022-09-09T03:04:01.763Z,1009.848999
2022-09-09T03:04:59.056Z,1009.822937
2022-09-09T03:06:00.535Z,1009.727234
2022-09-09T03:06:56.483Z,1009.800415
2022-09-09T03:07:58.433Z,1009.719299
2022-09-09T03:08:53.811Z,1009.754395
2022-09-09T03:09:54.963Z,1009.800415
2022-09-09T03:10:51.655Z,1009.784485
2022-09-09T03:12:00.304Z,1009.734009
2022-09-09T03:12:59.712Z,1009.764282
2022-09-09T03:15:02.682Z,1009.81842
2022-09-09T03:16:01.922Z,1009.772278
2022-09-09T03:17:05.673Z,1009.737305
2022-09-09T03:18:03.434Z,1009.756531
2022-09-09T03:18:59.824Z,1009.714722
2022-09-09T03:20:02.291Z,1009.749756
2022-09-09T03:20:58.543Z,1009.671936
2022-09-09T03:22:28.953Z,1009.745239
2022-09-09T03:23:15.694Z,1009.652893
2022-09-09T03:24:13.503Z,1009.642517
2022-09-09T03:25:11.679Z,1009.66571
2022-09-09T03:26:08.897Z,1009.677063
2022-09-09T03:27:09.645Z,1009.69281
2022-09-09T03:28:05.523Z,1009.6922
2022-09-09T03:29:07.970Z,1009.712341
2022-09-09T03:30:07.373Z,1009.707886
2022-09-09T03:31:04.678Z,1009.703369
2022-09-09T03:32:07.054Z,1009.749756
2022-09-09T03:33:02.414Z,1009.718262
2022-09-09T03:34:05.892Z,1009.722717
2022-09-09T03:35:04.108Z,1009.699036
2022-09-09T03:36:04.904Z,1009.656128
2022-09-09T03:37:01.404Z,1009.667358
2022-09-09T03:38:05.722Z,1009.651733
2022-09-09T03:39:59.066Z,1009.659729
2022-09-09T03:40:57.085Z,1009.675476
2022-09-09T03:42:02.794Z,1009.64386
2022-09-09T03:43:03.087Z,1009.667358
2022-09-09T03:44:07.475Z,1009.718262
2022-09-09T03:45:00.323Z,1009.737305
2022-09-09T03:46:03.300Z,1009.64386
2022-09-09T03:46:59.568Z,1009.697937
2022-09-09T03:47:58.706Z,1009.740845
2022-09-09T03:49:02.909Z,1009.662903
2022-09-09T03:49:57.282Z,1009.716919
2022-09-09T03:50:59.013Z,1009.647156
2022-09-09T03:51:59.638Z,1009.688965
2022-09-09T03:52:55.729Z,1009.693542
2022-09-09T03:54:52.299Z,1009.68988
2022-09-09T03:55:54.988Z,1009.593079
2022-09-09T03:56:48.679Z,1009.628113
2022-09-09T03:57:55.780Z,1009.662903
2022-09-09T03:58:51.023Z,1009.648315
2022-09-09T03:59:57.265Z,1009.651733
2022-09-09T04:00:50.878Z,1009.613342
2022-09-09T04:02:38.939Z,1009.588379
2022-09-09T04:03:17.863Z,1009.656189
2022-09-09T04:04:22.311Z,1009.577271
2022-09-09T04:05:16.753Z,1009.658447
2022-09-09T04:06:20.726Z,1009.703552
2022-09-09T04:07:20.053Z,1009.61792
2022-09-09T04:08:20.658Z,1009.697327
2022-09-09T04:10:17.379Z,1009.595947
2022-09-09T04:11:19.962Z,1009.647034
2022-09-09T04:12:17.378Z,1009.654419
2022-09-09T04:13:21.395Z,1009.647034
2022-09-09T04:14:16.748Z,1009.69281
2022-09-09T04:15:17.699Z,1009.634766
2022-09-09T04:16:13.175Z,1009.638184
2022-09-09T04:17:13.575Z,1009.652893
2022-09-09T04:18:08.641Z,1009.652893
2022-09-09T04:19:17.749Z,1009.637024
2022-09-09T04:20:15.250Z,1009.675476
2022-09-09T04:21:13.289Z,1009.63269
2022-09-09T04:22:13.469Z,1009.628113
2022-09-09T04:23:11.547Z,1009.670837
2022-09-09T04:24:12.268Z,1009.617798
2022-09-09T04:25:11.668Z,1009.630188
2022-09-09T04:26:16.557Z,1009.641602
2022-09-09T04:27:04.438Z,1009.609985
2022-09-09T04:28:10.711Z,1009.729431
2022-09-09T04:30:04.108Z,1009.621338
2022-09-09T04:30:58.833Z,1009.713806
2022-09-09T04:32:03.978Z,1009.656128
2022-09-09T04:33:07.005Z,1009.714722
2022-09-09T04:35:11.805Z,1009.652893
2022-09-09T04:36:03.761Z,1009.702454
2022-09-09T04:37:06.246Z,1009.694458
2022-09-09T04:38:01.650Z,1009.659729
2022-09-09T04:39:03.809Z,1009.640381
2022-09-09T04:40:02.031Z,1009.740845
2022-09-09T04:41:06.198Z,1009.732849
2022-09-09T04:42:05.744Z,1009.774658
2022-09-09T04:43:05.200Z,1009.723816
2022-09-09T04:44:09.660Z,1009.678772
2022-09-09T04:45:04.365Z,1009.702454
2022-09-09T04:46:06.390Z,1009.826355
2022-09-09T04:47:07.842Z,1009.734009
2022-09-09T04:48:01.204Z,1009.687683
2022-09-09T04:49:06.002Z,1009.719299
2022-09-09T04:50:02.001Z,1009.718262
2022-09-09T04:51:06.996Z,1009.683167
2022-09-09T04:51:58.835Z,1009.648315
2022-09-09T04:53:01.204Z,1009.729431
2022-09-09T04:54:44.866Z,1009.696594
2022-09-09T04:55:31.704Z,1009.674927
2022-09-09T04:56:29.748Z,1009.625488
2022-09-09T04:57:31.384Z,1009.652466
2022-09-09T04:58:32.670Z,1009.608643
2022-09-09T04:59:28.817Z,1009.647034
2022-09-09T05:00:30.989Z,1009.653748
2022-09-09T05:01:29.083Z,1009.684326
2022-09-09T05:02:31.488Z,1009.665161
2022-09-09T05:03:23.727Z,1009.719299
2022-09-09T05:05:20.242Z,1009.665161
2022-09-09T05:06:27.874Z,1009.657288
2022-09-09T05:07:21.129Z,1009.714722
2022-09-09T05:08:20.285Z,1009.699036
2022-09-09T05:09:14.999Z,1009.679932
2022-09-09T05:10:16.389Z,1009.675476
2022-09-09T05:11:10.794Z,1009.675476
2022-09-09T05:12:11.941Z,1009.659729
2022-09-09T05:13:06.468Z,1009.601135
2022-09-09T05:14:05.959Z,1009.651733
2022-09-09T05:15:02.262Z,1009.658508
2022-09-09T05:16:04.432Z,1009.658508
2022-09-09T05:17:03.275Z,1009.696716
2022-09-09T05:18:01.504Z,1009.719421
2022-09-09T05:19:03.538Z,1009.65387
2022-09-09T05:19:57.907Z,1009.673279
2022-09-09T05:20:57.543Z,1009.638306
2022-09-09T05:21:52.847Z,1009.749878
2022-09-09T05:22:57.567Z,1009.695801
2022-09-09T05:23:58.815Z,1009.649963
2022-09-09T05:24:54.307Z,1009.5802
2022-09-09T05:25:53.526Z,1009.575562
2022-09-09T05:26:49.564Z,1009.637146
2022-09-09T05:27:50.813Z,1009.645508
2022-09-09T05:30:04.165Z,1009.592896
2022-09-09T05:30:59.215Z,1009.598328
2022-09-09T05:32:00.705Z,1009.595276
2022-09-09T05:32:55.659Z,1009.602173
2022-09-09T05:34:55.030Z,1009.658936
2022-09-09T05:36:26.665Z,1009.604858
2022-09-09T05:37:07.000Z,1009.598328
2022-09-09T05:38:05.286Z,1009.672668
2022-09-09T05:39:59.967Z,1009.606628
2022-09-09T05:41:00.324Z,1009.590942
2022-09-09T05:41:56.690Z,1009.597412
2022-09-09T05:42:57.087Z,1009.562134
2022-09-09T05:43:52.467Z,1009.608643
2022-09-09T05:44:54.343Z,1009.577209
2022-09-09T05:45:49.951Z,1009.480225
2022-09-09T05:46:50.207Z,1009.507263
2022-09-09T05:47:46.493Z,1009.580688
2022-09-09T05:48:45.842Z,1009.615479
2022-09-09T05:50:45.908Z,1009.580688
2022-09-09T05:51:40.046Z,1009.572632
2022-09-09T05:52:39.532Z,1009.56134
2022-09-09T05:53:38.754Z,1009.588379
2022-09-09T05:54:38.370Z,1009.647034
2022-09-09T05:55:33.680Z,1009.604248
2022-09-09T05:56:38.376Z,1009.577209
2022-09-09T05:57:31.008Z,1009.69281
2022-09-09T05:58:32.903Z,1009.674072
2022-09-09T06:00:36.945Z,1009.631836
2022-09-09T06:01:32.216Z,1009.740112
2022-09-09T06:02:35.437Z,1009.647949
2022-09-09T06:03:27.898Z,1009.690796
2022-09-09T06:04:31.431Z,1009.65686
2022-09-09T06:05:23.866Z,1009.668152
2022-09-09T06:06:25.933Z,1009.65686
2022-09-09T06:07:18.619Z,1009.726807
2022-09-09T06:08:20.593Z,1009.688477
2022-09-09T06:09:22.699Z,1009.688477
2022-09-09T06:10:17.244Z,1009.688477
2022-09-09T06:11:19.666Z,1009.723755
2022-09-09T06:12:14.549Z,1009.680969
2022-09-09T06:13:16.369Z,1009.742554
2022-09-09T06:15:00.480Z,1009.675842
2022-09-09T06:15:40.040Z,1009.666565
2022-09-09T06:16:40.575Z,1009.713928
2022-09-09T06:17:35.922Z,1009.691162
2022-09-09T06:18:35.019Z,1009.640137
2022-09-09T06:19:33.958Z,1009.689697
2022-09-09T06:20:29.261Z,1009.73645
2022-09-09T06:21:31.242Z,1009.77478
2022-09-09T06:22:26.481Z,1009.63501
2022-09-09T06:23:27.797Z,1009.743286
2022-09-09T06:25:25.135Z,1009.770325
2022-09-09T06:26:26.750Z,1009.724243
2022-09-09T06:27:23.701Z,1009.781738
2022-09-09T06:28:24.850Z,1009.789673
2022-09-09T06:29:25.105Z,1009.77832
2022-09-09T06:30:18.677Z,1009.820679
2022-09-09T06:31:21.213Z,1009.73645
2022-09-09T06:32:15.657Z,1009.752197
2022-09-09T06:33:17.020Z,1009.698059
2022-09-09T06:34:12.518Z,1009.78363
2022-09-09T06:35:10.425Z,1009.768066
2022-09-09T06:36:17.254Z,1009.748413
2022-09-09T06:37:09.564Z,1009.752808
2022-09-09T06:38:14.379Z,1009.737061
2022-09-09T06:40:05.800Z,1009.74292
2022-09-09T06:41:06.449Z,1009.712097
2022-09-09T06:42:00.798Z,1009.777405
2022-09-09T06:43:03.128Z,1009.797058
2022-09-09T06:43:58.901Z,1009.758667
2022-09-09T06:45:01.864Z,1009.817383
2022-09-09T06:45:54.834Z,1009.758789
2022-09-09T06:46:59.250Z,1009.754883
2022-09-09T06:47:51.345Z,1009.82489
2022-09-09T06:48:53.370Z,1009.770752
2022-09-09T06:49:48.618Z,1009.751404
2022-09-09T06:50:50.381Z,1009.821167
2022-09-09T06:51:44.699Z,1009.782898
2022-09-09T06:52:43.110Z,1009.817932
2022-09-09T06:54:26.702Z,1009.862854
2022-09-09T06:55:05.745Z,1009.759949
2022-09-09T06:56:16.028Z,1009.737915
2022-09-09T06:56:18.034Z,1009.737915
2022-09-09T06:57:36.891Z,1009.870239
2022-09-09T06:57:38.121Z,1009.870239
2022-09-09T06:57:38.323Z,1009.870239
2022-09-09T06:58:09.080Z,1009.773743
2022-09-09T06:59:08.627Z,1009.782715
2022-09-09T07:00:05.205Z,1009.78717
2022-09-09T07:01:05.228Z,1009.774658
2022-09-09T07:01:59.964Z,1009.75885
2022-09-09T07:02:59.437Z,1009.755005
2022-09-09T07:03:54.010Z,1009.719604
2022-09-09T07:04:54.300Z,1009.739319
2022-09-09T07:05:48.948Z,1009.809143
2022-09-09T07:06:48.529Z,1009.789612
2022-09-09T07:07:43.757Z,1009.735474
2022-09-09T07:08:55.367Z,1009.800842
2022-09-09T07:08:56.177Z,1009.800842
2022-09-09T07:09:40.806Z,1009.848145
2022-09-09T07:10:36.048Z,1009.949524
2022-09-09T07:11:35.409Z,1009.868225
2022-09-09T07:12:30.888Z,1009.903137
2022-09-09T07:13:29.865Z,1009.863953
2022-09-09T07:15:24.124Z,1009.924927
2022-09-09T07:16:19.833Z,1009.890381
2022-09-09T07:17:19.352Z,1009.874695
2022-09-09T07:18:14.431Z,1009.858948
2022-09-09T07:19:15.192Z,1009.897278
2022-09-09T07:20:09.802Z,1009.908569
2022-09-09T07:21:09.577Z,1009.943054
2022-09-09T07:22:06.097Z,1009.93573
2022-09-09T07:23:04.636Z,1009.908569
2022-09-09T07:24:02.518Z,1009.897278
2022-09-09T07:24:57.686Z,1009.924377
2022-09-09T07:26:00.181Z,1009.863281
2022-09-09T07:26:53.106Z,1009.906738
2022-09-09T07:27:55.678Z,1009.923401
2022-09-09T07:28:48.752Z,1009.954041
2022-09-09T07:29:48.576Z,1009.909607
2022-09-09T07:30:47.100Z,1009.856018
2022-09-09T07:31:42.851Z,1009.93866
2022-09-09T07:32:43.711Z,1009.955017
2022-09-09T07:33:39.501Z,1009.929321
2022-09-09T07:34:42.747Z,1009.991821
2022-09-09T07:35:37.197Z,1009.945557
2022-09-09T07:37:14.914Z,1009.967407
2022-09-09T07:37:55.138Z,1009.881104
2022-09-09T07:38:53.234Z,1009.93219
2022-09-09T07:39:51.195Z,1009.932739
2022-09-09T07:40:51.462Z,1009.940491
2022-09-09T07:41:46.706Z,1009.916931
2022-09-09T07:42:45.025Z,1009.929077
2022-09-09T07:43:44.596Z,1009.886292
2022-09-09T07:45:37.454Z,1009.948486
2022-09-09T07:46:37.627Z,1009.929077
2022-09-09T07:47:32.985Z,1009.949402
2022-09-09T07:48:30.313Z,1009.945923
2022-09-09T07:50:25.725Z,1010.031677
2022-09-09T07:51:23.700Z,1009.99762
2022-09-09T07:52:23.558Z,1010.036011
2022-09-09T07:53:23.813Z,1010.078918
2022-09-09T07:55:21.323Z,1010.07135
2022-09-09T07:56:13.761Z,1010.098389
2022-09-09T07:57:16.026Z,1010.06842
2022-09-09T07:58:08.739Z,1010.044189
2022-09-09T08:00:02.960Z,1010.059509
2022-09-09T08:00:59.905Z,1010.097961
2022-09-09T08:01:59.005Z,1010.120667
2022-09-09T08:02:56.522Z,1010.107544
2022-09-09T08:03:56.365Z,1010.145996
2022-09-09T08:03:56.720Z,1010.145996
2022-09-09T08:05:46.672Z,1010.084839
2022-09-09T08:06:47.941Z,1010.105957
2022-09-09T08:07:44.588Z,1010.084595
2022-09-09T08:08:48.609Z,1010.082764
2022-09-09T08:10:45.699Z,1010.09375
2022-09-09T08:11:40.932Z,1010.06842
2022-09-09T08:12:42.135Z,1010.058716
2022-09-09T08:13:01.397Z,1010.058716
2022-09-09T08:13:07.926Z,1010.058716
2022-09-09T08:13:39.474Z,1010.014893
2022-09-09T08:15:36.978Z,1010.083618
2022-09-09T08:16:35.530Z,1010.04126
2022-09-09T08:18:12.981Z,1010.069641
2022-09-09T08:18:53.072Z,1010.088379
2022-09-09T08:19:50.980Z,1010.03418
2022-09-09T08:20:50.150Z,1010.09552
2022-09-09T08:21:46.605Z,1010.118774
2022-09-09T08:22:44.476Z,1010.047852
2022-09-09T08:23:42.595Z,1010.070557
2022-09-09T08:25:38.160Z,1010.032043
2022-09-09T08:26:35.659Z,1010.039978
2022-09-09T08:27:38.294Z,1010.039978
2022-09-09T08:28:33.491Z,1010.093384
2022-09-09T08:30:31.559Z,1010.107666
2022-09-09T08:31:26.010Z,1010.079285
2022-09-09T08:32:28.424Z,1010.129089
2022-09-09T08:33:23.063Z,1010.156006
2022-09-09T08:34:25.672Z,1010.190063
2022-09-09T08:35:17.495Z,1010.247864
2022-09-09T08:36:16.501Z,1010.200684
2022-09-09T08:37:11.215Z,1010.134094
2022-09-09T08:38:11.286Z,1010.261841
2022-09-09T08:39:07.675Z,1010.190918
2022-09-09T08:40:09.386Z,1010.183105
2022-09-09T08:41:01.542Z,1010.14032
2022-09-09T08:42:00.215Z,1010.105225
2022-09-09T08:42:54.781Z,1010.163025
2022-09-09T08:43:54.953Z,1010.186462
2022-09-09T08:45:51.908Z,1010.203308
2022-09-09T08:46:43.745Z,1010.175232
2022-09-09T08:47:40.176Z,1010.151672
2022-09-09T08:48:39.895Z,1010.228577
2022-09-09T08:50:35.750Z,1010.169617
2022-09-09T08:52:21.943Z,1010.208557
2022-09-09T08:52:43.304Z,1010.155579
2022-09-09T08:53:41.467Z,1010.199768
2022-09-09T08:54:52.117Z,1010.19635
2022-09-09T08:54:52.386Z,1010.19635
2022-09-09T08:55:37.910Z,1010.266174
2022-09-09T08:56:38.928Z,1010.092224
2022-09-09T08:57:34.399Z,1010.17804
2022-09-09T08:58:34.827Z,1010.115723
2022-09-09T08:59:30.854Z,1010.12262
2022-09-09T09:00:30.626Z,1010.19635
2022-09-09T09:01:26.100Z,1010.126343
2022-09-09T09:02:29.364Z,1010.160461
2022-09-09T09:03:23.601Z,1010.183899
2022-09-09T09:05:19.759Z,1010.153381
2022-09-09T09:06:20.608Z,1010.157776
2022-09-09T09:07:16.632Z,1010.099915
2022-09-09T09:08:20.312Z,1010.100891
2022-09-09T09:09:13.961Z,1010.201782
2022-09-09T09:10:39.789Z,1010.323059
2022-09-09T09:10:40.591Z,1010.323059
2022-09-09T09:11:14.372Z,1010.223389
2022-09-09T09:12:10.899Z,1010.103882
2022-09-09T09:13:14.530Z,1010.135681
2022-09-09T09:15:09.245Z,1010.163452
2022-09-09T09:16:05.569Z,1010.259949
2022-09-09T09:17:05.590Z,1010.217041
2022-09-09T09:18:01.273Z,1010.138977
2022-09-09T09:18:59.626Z,1010.189209
2022-09-09T09:20:00.791Z,1010.138977
2022-09-09T09:20:57.914Z,1010.18988
2022-09-09T09:21:59.067Z,1010.205688
2022-09-09T09:22:55.347Z,1010.301819
2022-09-09T09:23:55.588Z,1010.149353
2022-09-09T09:24:50.863Z,1010.141968
2022-09-09T09:25:53.982Z,1010.277588
2022-09-09T09:26:47.467Z,1010.223389
2022-09-09T09:27:46.013Z,1010.214966
2022-09-09T09:28:45.957Z,1010.22644
2022-09-09T09:30:44.248Z,1010.262268
2022-09-09T09:31:04.660Z,1010.244202
2022-09-09T09:32:02.839Z,1010.149353
2022-09-09T09:32:59.773Z,1010.162415
2022-09-09T09:33:59.937Z,1010.216064
2022-09-09T09:35:57.299Z,1010.244812
2022-09-09T09:36:49.982Z,1010.147766
2022-09-09T09:40:50.032Z,1010.144043
2022-09-09T09:41:50.048Z,1010.202698
2022-09-09T09:42:44.865Z,1010.186829
2022-09-09T09:43:44.813Z,1010.212769
2022-09-09T09:44:43.812Z,1010.278015
2022-09-09T09:45:46.763Z,1010.238831
2022-09-09T09:46:06.786Z,1010.238831
2022-09-09T09:46:16.359Z,1010.238831
2022-09-09T09:46:41.776Z,1010.165161
2022-09-09T09:47:38.167Z,1010.289917
2022-09-09T09:48:37.601Z,1010.235596
2022-09-09T09:50:34.543Z,1010.265991
2022-09-09T09:51:27.100Z,1010.273682
2022-09-09T09:52:26.819Z,1010.242188
2022-09-09T09:53:22.809Z,1010.249268
2022-09-09T09:54:22.207Z,1010.299072
2022-09-09T09:55:17.025Z,1010.318604
2022-09-09T09:56:20.570Z,1010.244202
2022-09-09T09:57:13.147Z,1010.336304
2022-09-09T09:58:15.170Z,1010.316467
2022-09-09T09:59:17.882Z,1010.277588
2022-09-09T09:59:23.387Z,1010.277588
2022-09-09T09:59:29.673Z,1010.277588
2022-09-09T10:00:09.920Z,1010.313477
2022-09-09T10:01:05.316Z,1010.251892
2022-09-09T10:02:07.359Z,1010.275635
2022-09-09T10:03:00.303Z,1010.306152
2022-09-09T10:03:59.827Z,1010.313354
2022-09-09T10:04:54.459Z,1010.312134
2022-09-09T10:05:53.829Z,1010.284973
2022-09-09T10:06:48.267Z,1010.273193
2022-09-09T10:07:47.901Z,1010.337646
2022-09-09T10:08:44.053Z,1010.309937
2022-09-09T10:09:40.286Z,1010.313538
2022-09-09T10:10:40.185Z,1010.281067
2022-09-09T10:11:34.770Z,1010.322205
2022-09-09T10:12:33.610Z,1010.218201
2022-09-09T10:13:28.240Z,1010.296082
2022-09-09T10:14:28.626Z,1010.246277
2022-09-09T10:15:23.353Z,1010.197083
2022-09-09T10:16:25.708Z,1010.306091
2022-09-09T10:17:18.511Z,1010.131958
2022-09-09T10:18:20.504Z,1010.171692
2022-09-09T10:20:15.446Z,1010.219482
2022-09-09T10:21:09.730Z,1010.185242
2022-09-09T10:22:33.680Z,1010.174927
2022-09-09T10:23:13.890Z,1010.07605
2022-09-09T10:24:12.005Z,1010.153809
2022-09-09T10:25:09.330Z,1010.142334
2022-09-09T10:26:07.597Z,1010.092468
2022-09-09T10:27:05.755Z,1010.131348
2022-09-09T10:28:06.064Z,1010.140137
2022-09-09T10:29:01.423Z,1010.171631
2022-09-09T10:30:57.674Z,1010.125854
2022-09-09T10:31:55.202Z,1010.176575
2022-09-09T10:32:55.222Z,1010.21167
2022-09-09T10:33:53.235Z,1010.125854
2022-09-09T10:34:50.456Z,1010.180176
2022-09-09T10:35:47.585Z,1010.125977
2022-09-09T10:36:46.908Z,1010.110229
2022-09-09T10:37:44.410Z,1010.145081
2022-09-09T10:38:43.553Z,1010.19165
2022-09-09T10:40:39.475Z,1010.132629
2022-09-09T10:41:41.532Z,1010.047302
2022-09-09T10:42:36.818Z,1010.094543
2022-09-09T10:43:39.901Z,1010.12561
2022-09-09T10:44:34.171Z,1010.06311
2022-09-09T10:45:36.289Z,1010.087036
2022-09-09T10:46:29.070Z,1010.051514
2022-09-09T10:47:29.425Z,1010.055908
2022-09-09T10:48:29.347Z,1010.106628
2022-09-09T10:49:24.016Z,1010.075928
2022-09-09T10:50:50.335Z,1010.088074
2022-09-09T10:51:00.024Z,1010.088074
2022-09-09T10:51:29.310Z,1010.061096
2022-09-09T10:52:25.586Z,1010.077576
2022-09-09T10:53:21.543Z,1010.046814
2022-09-09T10:54:27.129Z,1010.101135
2022-09-09T10:56:16.657Z,1010.102722
2022-09-09T10:56:50.908Z,1010.104187
2022-09-09T10:57:48.458Z,1010.097046
2022-09-09T10:58:21.918Z,1010.069885
2022-09-09T10:59:16.893Z,1010.107422
2022-09-09T11:00:16.078Z,1010.029907
2022-09-09T11:01:10.703Z,1010.134155
2022-09-09T11:02:10.188Z,1010.016907
2022-09-09T11:03:04.611Z,1010.039856
2022-09-09T11:04:03.891Z,1009.988159
2022-09-09T11:05:57.983Z,1010.025085
2022-09-09T11:06:52.836Z,1010.017029
2022-09-09T11:07:51.893Z,1009.985535
2022-09-09T11:08:47.969Z,1010.008362
2022-09-09T11:09:50.876Z,1010.046875
2022-09-09T11:10:43.692Z,1009.965515
2022-09-09T11:11:45.608Z,1010.019775
2022-09-09T11:12:39.906Z,1009.972534
2022-09-09T11:13:37.395Z,1010.026794
2022-09-09T11:14:37.682Z,1009.94104
2022-09-09T11:15:31.583Z,1010.029907
2022-09-09T11:16:29.606Z,1010.041382
2022-09-09T11:17:26.793Z,1009.940369
2022-09-09T11:18:23.676Z,1009.951721
2022-09-09T11:20:20.157Z,1009.90686
2022-09-09T11:21:17.312Z,1009.999939